Time;durP1;ratioP1;P1;durP2;ratioP2;P2;SDS_P1;SDS_P2;PMS_P1;PMS_P2;Temp;Humidity;BMP_temperature;BMP_pressure;BME280_temperature;BME280_humidity;BME280_pressure;Samples;Min_cycle;Max_cycle;Signal;HPM_P1;HPM_P2
2021/07/18 00:02:23;;;;;;;;;;;18.40;99.90;;;;;;5091946;28;19913;-76
2021/07/18 00:04:50;;;;;;;;;;;18.30;99.90;;;;;;5094569;28;19917;-74
2021/07/18 00:07:15;;;;;;;;;;;18.30;99.90;;;;;;5093851;28;19904;-73
2021/07/18 00:09:41;;;;;;;;;;;18.20;99.90;;;;;;5096008;28;19923;-76
2021/07/18 00:12:06;;;;;;;;;;;18.20;99.90;;;;;;5090176;28;19930;-76
2021/07/18 00:14:32;;;;;;;;;;;18.10;99.90;;;;;;5086363;28;19913;-76
2021/07/18 00:16:58;;;;;;;;;;;18.10;99.90;;;;;;5080127;28;19913;-76
2021/07/18 00:19:23;;;;;;;;;;;18.20;99.90;;;;;;5081392;28;19907;-76
2021/07/18 00:21:49;;;;;;;;;;;18.20;99.90;;;;;;5091219;28;19976;-78
2021/07/18 00:24:14;;;;;;;;;;;18.30;99.90;;;;;;5094684;28;19912;-77
2021/07/18 00:26:40;;;;;;;;;;;18.20;99.90;;;;;;5087754;28;19991;-75
2021/07/18 00:29:05;;;;;;;;;;;18.20;99.90;;;;;;5086212;28;20189;-78
2021/07/18 00:31:31;;;;;;;;;;;18.20;99.90;;;;;;5087536;28;19958;-75
2021/07/18 00:33:56;;;;;;;;;;;18.20;99.90;;;;;;5084599;28;19897;-77
2021/07/18 00:36:22;;;;;;;;;;;18.20;99.90;;;;;;5099298;28;20007;-77
2021/07/18 00:38:47;;;;;;;;;;;18.10;99.90;;;;;;5100563;28;19901;-77
2021/07/18 00:41:13;;;;;;;;;;;18.10;99.90;;;;;;5095451;28;19916;-76
2021/07/18 00:43:38;;;;;;;;;;;18.10;99.90;;;;;;5099171;28;19900;-76
2021/07/18 00:46:06;;;;;;;;;;;18.10;99.90;;;;;;5101150;28;19932;-75
2021/07/18 00:48:31;;;;;;;;;;;18.10;99.90;;;;;;5096597;28;19905;-76
2021/07/18 00:50:57;;;;;;;;;;;18.10;99.90;;;;;;5084972;28;19923;-76
2021/07/18 00:53:23;;;;;;;;;;;18.00;99.90;;;;;;5099038;28;19924;-74
2021/07/18 00:55:50;;;;;;;;;;;18.10;99.90;;;;;;5092016;28;19900;-78
2021/07/18 00:58:16;;;;;;;;;;;18.10;99.90;;;;;;5089201;28;19924;-76
2021/07/18 01:00:41;;;;;;;;;;;18.10;99.90;;;;;;5079628;28;19917;-77
2021/07/18 01:03:07;;;;;;;;;;;18.00;99.90;;;;;;5084341;28;19960;-75
2021/07/18 01:05:33;;;;;;;;;;;18.00;99.90;;;;;;5086481;28;19951;-77
2021/07/18 01:07:59;;;;;;;;;;;18.00;99.90;;;;;;5092001;28;19909;-76
2021/07/18 01:10:24;;;;;;;;;;;18.00;99.90;;;;;;5080661;28;19945;-73
2021/07/18 01:12:50;;;;;;;;;;;17.90;99.90;;;;;;5091066;28;19900;-76
2021/07/18 01:15:15;;;;;;;;;;;17.90;99.90;;;;;;5100555;28;19923;-76
2021/07/18 01:17:41;;;;;;;;;;;17.80;99.90;;;;;;5100315;28;19900;-76
2021/07/18 01:20:10;;;;;;;;;;;17.80;99.90;;;;;;5090775;28;19908;-72
2021/07/18 01:22:36;;;;;;;;;;;17.80;99.90;;;;;;5087856;28;19919;-71
2021/07/18 01:25:04;;;;;;;;;;;17.80;99.90;;;;;;5080441;28;19944;-75
2021/07/18 01:27:29;;;;;;;;;;;17.80;99.90;;;;;;5076582;28;20266;-74
2021/07/18 01:29:55;;;;;;;;;;;17.70;99.90;;;;;;5062808;28;19973;-77
2021/07/18 01:32:21;;;;;;;;;;;17.70;99.90;;;;;;5080975;28;19912;-77
2021/07/18 01:34:47;;;;;;;;;;;17.60;99.90;;;;;;5069872;28;19972;-76
2021/07/18 01:37:13;;;;;;;;;;;17.60;99.90;;;;;;5065592;28;19974;-75
2021/07/18 01:39:38;;;;;;;;;;;17.50;99.90;;;;;;5062564;28;19913;-76
2021/07/18 01:42:04;;;;;;;;;;;17.40;99.90;;;;;;5061453;28;19979;-77
2021/07/18 01:44:29;;;;;;;;;;;17.40;99.90;;;;;;5070120;28;20369;-77
2021/07/18 01:46:55;;;;;;;;;;;17.40;99.90;;;;;;5071898;28;20019;-77
2021/07/18 01:49:20;;;;;;;;;;;17.40;99.90;;;;;;5071134;28;19913;-77
2021/07/18 01:51:46;;;;;;;;;;;17.40;99.90;;;;;;5077648;28;19974;-77
2021/07/18 01:54:11;;;;;;;;;;;17.40;99.90;;;;;;5077250;28;19912;-76
2021/07/18 01:56:38;;;;;;;;;;;17.50;99.90;;;;;;5077819;28;19912;-77
2021/07/18 01:59:03;;;;;;;;;;;17.50;99.90;;;;;;5077328;28;20379;-76
2021/07/18 02:01:30;;;;;;;;;;;17.50;99.90;;;;;;5068333;28;19912;-77
2021/07/18 02:03:56;;;;;;;;;;;17.40;99.90;;;;;;5070780;28;19919;-76
2021/07/18 02:06:22;;;;;;;;;;;17.40;99.90;;;;;;5067866;28;19942;-76
2021/07/18 02:08:58;;;;;;;;;;;17.40;99.90;;;;;;5072710;28;19916;-77
2021/07/18 02:11:24;;;;;;;;;;;17.40;99.90;;;;;;5065915;28;19952;-77
2021/07/18 02:13:51;;;;;;;;;;;17.30;99.90;;;;;;5072817;28;20280;-76
2021/07/18 02:16:17;;;;;;;;;;;17.30;99.90;;;;;;5075771;28;19917;-75
2021/07/18 02:18:43;;;;;;;;;;;17.30;99.90;;;;;;5075747;28;19919;-76
2021/07/18 02:21:09;;;;;;;;;;;17.30;99.90;;;;;;5065962;28;19948;-76
2021/07/18 02:23:34;;;;;;;;;;;17.30;99.90;;;;;;5055623;28;19920;-76
2021/07/18 02:26:00;;;;;;;;;;;17.20;99.90;;;;;;5060037;28;19924;-76
2021/07/18 02:28:25;;;;;;;;;;;17.20;99.90;;;;;;5074294;28;19981;-76
2021/07/18 02:30:51;;;;;;;;;;;17.20;99.90;;;;;;5065440;28;19919;-76
2021/07/18 02:33:16;;;;;;;;;;;17.30;99.90;;;;;;5059737;28;19913;-76
2021/07/18 02:35:42;;;;;;;;;;;17.20;99.90;;;;;;5059113;28;19913;-76
2021/07/18 02:38:07;;;;;;;;;;;17.20;99.90;;;;;;5064462;28;19995;-76
2021/07/18 02:40:33;;;;;;;;;;;17.20;99.90;;;;;;5060046;28;19913;-77
2021/07/18 02:42:58;;;;;;;;;;;17.10;99.90;;;;;;5073262;28;19913;-76
2021/07/18 02:45:24;;;;;;;;;;;17.10;99.90;;;;;;5062229;28;19917;-77
2021/07/18 02:47:50;;;;;;;;;;;17.00;99.90;;;;;;5068457;28;19935;-77
2021/07/18 02:50:17;;;;;;;;;;;17.00;99.90;;;;;;5059224;28;20006;-76
2021/07/18 02:52:43;;;;;;;;;;;17.00;99.90;;;;;;5073618;28;19919;-76
2021/07/18 02:55:09;;;;;;;;;;;16.90;99.90;;;;;;5073555;28;19995;-76
2021/07/18 02:57:35;;;;;;;;;;;16.90;99.90;;;;;;5054723;28;19913;-77
2021/07/18 03:00:01;;;;;;;;;;;16.90;99.90;;;;;;5067713;28;19966;-76
2021/07/18 03:02:26;;;;;;;;;;;16.90;99.90;;;;;;5069496;28;19917;-77
2021/07/18 03:04:52;;;;;;;;;;;16.80;99.90;;;;;;5056205;28;19912;-76
2021/07/18 03:07:17;;;;;;;;;;;16.90;99.90;;;;;;5059783;28;20399;-76
2021/07/18 03:09:43;;;;;;;;;;;16.80;99.90;;;;;;5072548;28;19944;-75
2021/07/18 03:12:08;;;;;;;;;;;16.90;99.90;;;;;;5058973;28;19912;-75
2021/07/18 03:14:34;;;;;;;;;;;16.80;99.90;;;;;;5054125;28;20384;-76
2021/07/18 03:16:59;;;;;;;;;;;16.80;99.90;;;;;;5054627;28;20007;-76
2021/07/18 03:19:25;;;;;;;;;;;16.80;99.90;;;;;;5069365;28;20384;-76
2021/07/18 03:21:50;;;;;;;;;;;16.90;99.90;;;;;;5056762;28;20361;-76
2021/07/18 03:24:16;;;;;;;;;;;16.90;99.90;;;;;;5068784;28;20377;-76
2021/07/18 03:26:41;;;;;;;;;;;16.90;99.90;;;;;;5053914;28;20442;-77
2021/07/18 03:29:07;;;;;;;;;;;17.00;99.90;;;;;;5054471;28;19999;-76
2021/07/18 03:31:32;;;;;;;;;;;17.00;99.90;;;;;;5056679;28;19920;-76
2021/07/18 03:33:58;;;;;;;;;;;17.00;99.90;;;;;;5054655;28;20288;-76
2021/07/18 03:36:24;;;;;;;;;;;17.00;99.90;;;;;;5073659;28;20284;-76
2021/07/18 03:38:49;;;;;;;;;;;17.00;99.90;;;;;;5064649;28;20276;-76
2021/07/18 03:41:18;;;;;;;;;;;17.10;99.90;;;;;;5064242;28;19912;-76
2021/07/18 03:43:44;;;;;;;;;;;17.10;99.90;;;;;;5074510;28;20361;-76
2021/07/18 03:46:10;;;;;;;;;;;17.10;99.90;;;;;;5076087;28;19916;-77
2021/07/18 03:48:35;;;;;;;;;;;17.10;99.90;;;;;;5072817;28;19920;-76
2021/07/18 03:51:01;;;;;;;;;;;17.10;99.90;;;;;;5072072;28;19912;-77
2021/07/18 03:53:26;;;;;;;;;;;17.10;99.90;;;;;;5075357;28;19920;-76
2021/07/18 03:55:51;;;;;;;;;;;17.10;99.90;;;;;;5064832;28;19916;-76
2021/07/18 03:58:17;;;;;;;;;;;17.10;99.90;;;;;;5060464;28;19919;-77
2021/07/18 04:00:42;;;;;;;;;;;17.10;99.90;;;;;;5060136;28;20381;-77
2021/07/18 04:03:08;;;;;;;;;;;17.10;99.90;;;;;;5069326;28;20003;-76
2021/07/18 04:05:34;;;;;;;;;;;17.10;99.90;;;;;;5072421;28;19916;-77
2021/07/18 04:07:59;;;;;;;;;;;17.10;99.90;;;;;;5067501;28;20368;-75
2021/07/18 04:10:25;;;;;;;;;;;17.10;99.90;;;;;;5071987;28;19999;-76
2021/07/18 04:12:50;;;;;;;;;;;17.10;99.90;;;;;;5065444;28;19952;-76
2021/07/18 04:15:16;;;;;;;;;;;17.10;99.90;;;;;;5064114;28;19969;-76
2021/07/18 04:17:41;;;;;;;;;;;17.10;99.90;;;;;;5075488;28;20289;-76
2021/07/18 04:20:07;;;;;;;;;;;17.10;99.90;;;;;;5075523;28;19920;-76
2021/07/18 04:22:33;;;;;;;;;;;17.10;99.90;;;;;;5074979;28;19913;-76
2021/07/18 04:24:58;;;;;;;;;;;17.10;99.90;;;;;;5067088;28;19964;-76
2021/07/18 04:27:24;;;;;;;;;;;17.10;99.90;;;;;;5073084;28;20399;-77
2021/07/18 04:29:49;;;;;;;;;;;17.10;99.90;;;;;;5075185;28;19913;-77
2021/07/18 04:32:15;;;;;;;;;;;17.10;99.90;;;;;;5061758;28;19912;-76
2021/07/18 04:34:43;;;;;;;;;;;17.10;99.90;;;;;;5067238;28;19959;-75
2021/07/18 04:37:12;;;;;;;;;;;17.20;99.90;;;;;;5057739;28;19912;-77
2021/07/18 04:39:38;;;;;;;;;;;17.20;99.90;;;;;;5075072;28;19943;-76
2021/07/18 04:42:04;;;;;;;;;;;17.20;99.90;;;;;;5075304;28;20034;-77
2021/07/18 04:44:30;;;;;;;;;;;17.20;99.90;;;;;;5063133;28;19992;-77
2021/07/18 04:46:56;;;;;;;;;;;17.20;99.90;;;;;;5075657;28;19917;-77
2021/07/18 04:49:22;;;;;;;;;;;17.20;99.90;;;;;;5074095;28;19916;-77
2021/07/18 04:51:47;;;;;;;;;;;17.20;99.90;;;;;;5075045;28;19978;-77
2021/07/18 04:54:13;;;;;;;;;;;17.30;99.90;;;;;;5063068;28;19920;-77
2021/07/18 04:56:39;;;;;;;;;;;17.30;99.90;;;;;;5068740;28;19965;-76
2021/07/18 04:59:05;;;;;;;;;;;17.30;99.90;;;;;;5069228;28;19966;-77
2021/07/18 05:01:30;;;;;;;;;;;17.30;99.90;;;;;;5071334;28;19912;-77
2021/07/18 05:03:56;;;;;;;;;;;17.40;99.90;;;;;;5073192;28;19923;-76
2021/07/18 05:06:21;;;;;;;;;;;17.50;99.90;;;;;;5059342;28;19959;-77
2021/07/18 05:08:47;;;;;;;;;;;17.50;99.90;;;;;;5059189;28;20292;-77
2021/07/18 05:11:12;;;;;;;;;;;17.50;99.90;;;;;;5069430;28;19920;-77
2021/07/18 05:13:37;;;;;;;;;;;17.60;99.90;;;;;;5070030;28;19913;-77
2021/07/18 05:16:03;;;;;;;;;;;17.60;99.90;;;;;;5075091;28;19945;-77
2021/07/18 05:18:29;;;;;;;;;;;17.70;99.90;;;;;;5073936;28;19912;-76
2021/07/18 05:20:54;;;;;;;;;;;17.70;99.90;;;;;;5074328;28;19912;-77
2021/07/18 05:23:20;;;;;;;;;;;17.80;99.90;;;;;;5071555;28;20323;-77
2021/07/18 05:25:45;;;;;;;;;;;17.90;99.90;;;;;;5074346;28;20392;-77
2021/07/18 05:28:11;;;;;;;;;;;18.00;99.90;;;;;;5074891;28;20061;-77
2021/07/18 05:30:36;;;;;;;;;;;18.00;99.90;;;;;;5069503;28;19913;-77
2021/07/18 05:33:02;;;;;;;;;;;18.10;99.90;;;;;;5063536;28;19912;-77
2021/07/18 05:35:27;;;;;;;;;;;18.20;99.90;;;;;;5055685;28;20007;-76
2021/07/18 05:37:53;;;;;;;;;;;18.30;99.90;;;;;;5066458;28;19913;-77
2021/07/18 05:40:18;;;;;;;;;;;18.40;99.90;;;;;;5070861;28;19912;-76
2021/07/18 05:42:44;;;;;;;;;;;18.50;99.90;;;;;;5076430;28;19913;-77
2021/07/18 05:45:12;;;;;;;;;;;18.60;99.90;;;;;;5069110;28;19919;-77
2021/07/18 05:47:38;;;;;;;;;;;18.70;99.90;;;;;;5054775;28;20005;-76
2021/07/18 05:50:04;;;;;;;;;;;18.80;99.90;;;;;;5061351;28;20360;-77
2021/07/18 05:52:30;;;;;;;;;;;18.80;99.90;;;;;;5074073;28;19912;-77
2021/07/18 05:54:56;;;;;;;;;;;18.80;99.90;;;;;;5070163;28;19916;-77
2021/07/18 05:57:21;;;;;;;;;;;18.90;99.90;;;;;;5070459;28;20012;-75
2021/07/18 05:59:47;;;;;;;;;;;19.00;99.90;;;;;;5076583;28;20276;-75
2021/07/18 06:02:12;;;;;;;;;;;19.00;99.90;;;;;;5073870;28;20321;-76
2021/07/18 06:04:38;;;;;;;;;;;19.00;99.90;;;;;;5068473;28;20327;-74
2021/07/18 06:07:04;;;;;;;;;;;19.00;99.90;;;;;;5055459;28;19923;-74
2021/07/18 06:09:29;;;;;;;;;;;19.10;99.90;;;;;;5068227;28;19912;-75
2021/07/18 06:11:55;;;;;;;;;;;19.30;99.90;;;;;;5072787;28;19952;-74
2021/07/18 06:14:20;;;;;;;;;;;19.80;99.90;;;;;;5066842;28;20050;-76
2021/07/18 06:16:46;;;;;;;;;;;20.60;99.90;;;;;;5074097;28;19924;-76
2021/07/18 06:19:11;;;;;;;;;;;20.90;99.90;;;;;;5072698;28;20018;-76
2021/07/18 06:21:37;;;;;;;;;;;21.00;99.90;;;;;;5074077;28;19916;-75
2021/07/18 06:24:02;;;;;;;;;;;21.10;99.90;;;;;;5073063;28;20047;-76
2021/07/18 06:26:28;;;;;;;;;;;20.90;99.90;;;;;;5068224;28;19928;-75
2021/07/18 06:28:54;;;;;;;;;;;20.70;99.90;;;;;;5074564;28;19916;-76
2021/07/18 06:31:19;;;;;;;;;;;20.60;99.90;;;;;;5068224;28;19952;-76
2021/07/18 06:33:45;;;;;;;;;;;21.00;99.90;;;;;;5067315;28;19916;-76
2021/07/18 06:36:11;;;;;;;;;;;22.00;99.90;;;;;;5054184;28;20277;-76
2021/07/18 06:38:38;;;;;;;;;;;23.20;99.90;;;;;;5066261;28;19924;-76
2021/07/18 06:41:04;;;;;;;;;;;25.00;99.90;;;;;;5067185;28;19912;-76
2021/07/18 06:43:29;;;;;;;;;;;26.20;99.90;;;;;;5071976;28;19920;-77
2021/07/18 06:45:55;;;;;;;;;;;26.90;99.90;;;;;;5057939;28;19924;-76
2021/07/18 06:48:20;;;;;;;;;;;27.30;99.90;;;;;;5063185;28;20024;-77
2021/07/18 06:50:45;;;;;;;;;;;27.50;99.90;;;;;;5072920;28;19916;-76
2021/07/18 06:53:11;;;;;;;;;;;27.70;99.90;;;;;;5074144;28;19919;-77
2021/07/18 06:55:36;;;;;;;;;;;27.80;99.90;;;;;;5072481;28;20390;-77
2021/07/18 06:58:02;;;;;;;;;;;28.00;99.90;;;;;;5073937;28;20284;-77
2021/07/18 07:00:28;;;;;;;;;;;27.50;99.90;;;;;;5059058;28;19963;-76
2021/07/18 07:02:53;;;;;;;;;;;26.80;99.90;;;;;;5072771;28;19962;-76
2021/07/18 07:05:19;;;;;;;;;;;26.00;99.90;;;;;;5067130;28;20430;-77
2021/07/18 07:07:47;;;;;;;;;;;25.20;99.90;;;;;;5060422;28;19924;-77
2021/07/18 07:10:14;;;;;;;;;;;24.30;99.90;;;;;;5070993;28;19956;-75
2021/07/18 07:12:39;;;;;;;;;;;23.60;99.90;;;;;;5068679;28;19913;-76
2021/07/18 07:15:05;;;;;;;;;;;23.20;99.90;;;;;;5073983;28;19919;-75
2021/07/18 07:17:31;;;;;;;;;;;23.60;99.90;;;;;;5073187;28;19912;-77
2021/07/18 07:19:57;;;;;;;;;;;24.40;99.90;;;;;;5073247;28;19920;-76
2021/07/18 07:22:22;;;;;;;;;;;25.30;99.90;;;;;;5071354;28;19913;-76
2021/07/18 07:24:48;;;;;;;;;;;25.90;99.90;;;;;;5065814;28;19913;-75
2021/07/18 07:27:13;;;;;;;;;;;26.30;99.90;;;;;;5065142;28;20415;-76
2021/07/18 07:29:39;;;;;;;;;;;26.40;99.90;;;;;;5053864;28;19913;-77
2021/07/18 07:32:04;;;;;;;;;;;26.40;99.90;;;;;;5067366;28;19913;-76
2021/07/18 07:34:30;;;;;;;;;;;26.40;99.90;;;;;;5057506;28;19913;-76
2021/07/18 07:36:55;;;;;;;;;;;26.10;99.90;;;;;;5059205;28;20270;-76
2021/07/18 07:39:21;;;;;;;;;;;26.10;99.90;;;;;;5071839;28;19963;-76
2021/07/18 07:41:46;;;;;;;;;;;26.00;99.90;;;;;;5058993;28;20250;-76
2021/07/18 07:44:12;;;;;;;;;;;25.50;99.90;;;;;;5054103;28;19916;-77
2021/07/18 07:46:38;;;;;;;;;;;25.00;99.90;;;;;;5053158;28;19917;-77
2021/07/18 07:49:03;;;;;;;;;;;24.40;99.90;;;;;;5071324;28;19963;-77
2021/07/18 07:51:29;;;;;;;;;;;24.10;99.90;;;;;;5084326;28;19973;-77
2021/07/18 07:53:54;;;;;;;;;;;24.10;99.90;;;;;;5088367;28;19913;-77
2021/07/18 07:56:20;;;;;;;;;;;24.10;99.90;;;;;;5090462;28;19919;-77
2021/07/18 07:58:46;;;;;;;;;;;24.20;99.90;;;;;;5088459;28;19985;-77
2021/07/18 08:01:11;;;;;;;;;;;24.20;99.90;;;;;;5088148;28;19935;-76
2021/07/18 08:03:37;;;;;;;;;;;24.40;99.90;;;;;;5079797;28;20253;-77
2021/07/18 08:06:02;;;;;;;;;;;24.60;99.90;;;;;;5084233;28;19948;-79
2021/07/18 08:08:28;;;;;;;;;;;24.70;99.90;;;;;;5084995;28;19921;-77
2021/07/18 08:10:54;;;;;;;;;;;24.90;99.90;;;;;;5087582;28;19980;-77
2021/07/18 08:13:19;;;;;;;;;;;24.90;99.90;;;;;;5086886;28;19901;-77
2021/07/18 08:15:45;;;;;;;;;;;25.20;99.90;;;;;;5079801;28;19920;-77
2021/07/18 08:18:10;;;;;;;;;;;25.40;99.90;;;;;;5084874;28;19913;-76
2021/07/18 08:20:36;;;;;;;;;;;25.80;99.90;;;;;;5080533;28;19924;-77
2021/07/18 08:23:02;;;;;;;;;;;25.70;99.90;;;;;;5074881;28;19908;-77
2021/07/18 08:25:27;;;;;;;;;;;25.70;99.90;;;;;;5074058;28;19976;-76
2021/07/18 08:27:53;;;;;;;;;;;25.70;99.90;;;;;;5078081;28;19936;-74
2021/07/18 08:30:20;;;;;;;;;;;25.60;99.90;;;;;;5087409;28;19901;-77
2021/07/18 08:32:45;;;;;;;;;;;25.50;99.90;;;;;;5089431;28;19913;-77
2021/07/18 08:35:11;;;;;;;;;;;25.40;99.90;;;;;;5079630;28;19913;-77
2021/07/18 08:37:37;;;;;;;;;;;25.50;99.90;;;;;;5083696;28;20356;-76
2021/07/18 08:40:04;;;;;;;;;;;25.80;99.90;;;;;;5094534;28;19944;-75
2021/07/18 08:42:30;;;;;;;;;;;25.70;99.90;;;;;;5094931;28;19912;-78
2021/07/18 08:44:57;;;;;;;;;;;25.80;99.90;;;;;;5091607;28;19940;-74
2021/07/18 08:47:22;;;;;;;;;;;26.20;99.90;;;;;;5092931;28;19908;-83
2021/07/18 08:49:48;;;;;;;;;;;26.00;99.90;;;;;;5093006;28;19904;-75
2021/07/18 08:52:13;;;;;;;;;;;25.90;99.90;;;;;;5082260;28;19897;-75
2021/07/18 08:54:39;;;;;;;;;;;26.10;99.90;;;;;;5093505;28;19924;-75
2021/07/18 08:57:05;;;;;;;;;;;26.10;99.90;;;;;;5096882;28;19916;-75
2021/07/18 08:59:31;;;;;;;;;;;26.70;99.90;;;;;;5083042;28;19909;-75
2021/07/18 09:01:57;;;;;;;;;;;26.80;99.90;;;;;;5078401;28;19913;-75
2021/07/18 09:04:23;;;;;;;;;;;27.10;99.90;;;;;;5077574;28;19920;-76
2021/07/18 09:06:51;;;;;;;;;;;27.20;99.90;;;;;;5077832;28;19912;-76
2021/07/18 09:09:18;;;;;;;;;;;26.90;99.90;;;;;;5092302;28;19966;-76
2021/07/18 09:11:46;;;;;;;;;;;27.10;99.90;;;;;;5097841;28;19912;-74
2021/07/18 09:14:12;;;;;;;;;;;27.00;99.90;;;;;;5095934;28;19922;-75
2021/07/18 09:16:39;;;;;;;;;;;26.60;99.90;;;;;;5095432;28;19920;-75
2021/07/18 09:19:16;;;;;;;;;;;26.40;99.90;;;;;;5102739;28;19900;-75
2021/07/18 09:22:02;;;;;;;;;;;26.10;99.90;;;;;;5096104;28;19900;-74
2021/07/18 09:24:28;;;;;;;;;;;26.20;99.90;;;;;;5095094;28;19900;-75
2021/07/18 09:27:06;;;;;;;;;;;26.10;99.90;;;;;;5096957;28;19930;-76
2021/07/18 09:29:31;;;;;;;;;;;26.50;99.90;;;;;;5098184;28;20451;-75
2021/07/18 09:32:04;;;;;;;;;;;27.00;99.90;;;;;;5097034;28;19913;-75
2021/07/18 09:34:34;;;;;;;;;;;26.80;99.90;;;;;;5093278;28;19912;-74
2021/07/18 09:37:08;;;;;;;;;;;26.70;99.90;;;;;;5093915;28;19897;-75
2021/07/18 09:39:34;;;;;;;;;;;26.70;99.90;;;;;;5089479;28;20377;-74
2021/07/18 09:41:59;;;;;;;;;;;27.10;99.90;;;;;;5095471;28;20003;-75
2021/07/18 09:44:25;;;;;;;;;;;26.90;99.90;;;;;;5093653;28;19956;-75
2021/07/18 09:46:50;;;;;;;;;;;26.80;99.90;;;;;;5094891;28;19955;-75
2021/07/18 09:49:42;;;;;;;;;;;26.80;99.90;;;;;;5094444;28;19921;-75
2021/07/18 09:52:27;;;;;;;;;;;26.60;99.90;;;;;;5088232;28;20035;-75
2021/07/18 09:54:57;;;;;;;;;;;26.70;99.90;;;;;;5083574;28;19919;-75
2021/07/18 09:57:29;;;;;;;;;;;26.90;99.90;;;;;;5094506;28;19934;-76
2021/07/18 09:59:55;;;;;;;;;;;26.90;99.90;;;;;;5087140;28;19903;-76
2021/07/18 10:02:27;;;;;;;;;;;27.00;99.90;;;;;;5089725;28;19905;-74
2021/07/18 10:04:53;;;;;;;;;;;27.00;99.90;;;;;;5084200;28;19912;-75
2021/07/18 10:07:20;;;;;;;;;;;27.00;99.90;;;;;;5083124;28;19944;-76
2021/07/18 10:09:45;;;;;;;;;;;27.30;99.90;;;;;;5087919;28;19917;-77
2021/07/18 10:12:11;;;;;;;;;;;27.50;99.90;;;;;;5094357;28;19944;-77
2021/07/18 10:14:36;;;;;;;;;;;27.40;99.90;;;;;;5096714;28;19896;-75
2021/07/18 10:17:02;;;;;;;;;;;27.40;99.90;;;;;;5096662;28;19908;-75
2021/07/18 10:19:28;;;;;;;;;;;28.00;99.90;;;;;;5092712;28;19912;-75
2021/07/18 10:21:53;;;;;;;;;;;27.90;99.90;;;;;;5094017;28;19900;-75
2021/07/18 10:24:19;;;;;;;;;;;27.90;99.90;;;;;;5092254;28;19917;-76
2021/07/18 10:26:46;;;;;;;;;;;27.50;99.90;;;;;;5089060;28;19951;-76
2021/07/18 10:29:12;;;;;;;;;;;27.60;99.90;;;;;;5097164;28;19920;-75
2021/07/18 10:31:37;;;;;;;;;;;27.80;99.90;;;;;;5093428;28;19916;-76
2021/07/18 10:34:04;;;;;;;;;;;27.80;99.90;;;;;;5090214;28;19905;-75
2021/07/18 10:36:31;;;;;;;;;;;27.90;99.90;;;;;;5094171;28;19903;-75
2021/07/18 10:38:56;;;;;;;;;;;27.60;99.90;;;;;;5093041;28;19978;-75
2021/07/18 10:41:44;;;;;;;;;;;27.20;99.90;;;;;;5091536;28;19912;-76
2021/07/18 10:44:13;;;;;;;;;;;27.30;99.90;;;;;;5096398;28;19901;-76
2021/07/18 10:46:42;;;;;;;;;;;27.90;99.90;;;;;;5089411;28;19925;-76
2021/07/18 10:49:12;;;;;;;;;;;27.70;99.90;;;;;;5095386;28;19966;-76
2021/07/18 10:51:38;;;;;;;;;;;27.80;99.90;;;;;;5086671;28;19973;-76
2021/07/18 10:54:12;;;;;;;;;;;27.50;99.90;;;;;;5090047;28;19919;-77
2021/07/18 10:56:45;;;;;;;;;;;27.50;99.90;;;;;;5096931;28;19904;-76
2021/07/18 10:59:29;;;;;;;;;;;27.30;99.90;;;;;;5086996;28;19916;-81
2021/07/18 11:02:15;;;;;;;;;;;27.10;99.90;;;;;;5085903;28;19978;-75
2021/07/18 11:04:45;;;;;;;;;;;27.30;99.90;;;;;;5091985;28;19905;-75
2021/07/18 11:07:16;;;;;;;;;;;27.10;99.90;;;;;;5094474;28;19931;-75
2021/07/18 11:09:45;;;;;;;;;;;27.00;99.90;;;;;;5085871;28;19897;-74
2021/07/18 11:12:31;;;;;;;;;;;26.80;99.90;;;;;;5084474;28;19920;-72
2021/07/18 11:15:15;;;;;;;;;;;26.90;99.90;;;;;;5095302;28;19913;-74
2021/07/18 11:18:01;;;;;;;;;;;27.00;99.90;;;;;;5096271;28;19992;-73
2021/07/18 11:20:47;;;;;;;;;;;27.00;99.90;;;;;;5085869;28;20324;-75
2021/07/18 11:23:17;;;;;;;;;;;27.00;99.90;;;;;;5075006;28;19916;-75
2021/07/18 11:25:49;;;;;;;;;;;26.80;99.90;;;;;;5098673;28;19925;-74
2021/07/18 11:28:35;;;;;;;;;;;26.80;99.90;;;;;;5081666;28;19917;-75
2021/07/18 11:31:10;;;;;;;;;;;26.70;99.90;;;;;;5087766;28;19913;-73
2021/07/18 11:33:45;;;;;;;;;;;26.70;99.90;;;;;;5092576;28;19921;-74
2021/07/18 11:36:12;;;;;;;;;;;26.80;99.90;;;;;;5087874;28;19923;-70
2021/07/18 11:38:38;;;;;;;;;;;26.70;99.90;;;;;;5084546;28;19913;-71
2021/07/18 11:41:21;;;;;;;;;;;26.80;99.90;;;;;;5083130;28;19912;-74
2021/07/18 11:43:48;;;;;;;;;;;26.80;99.90;;;;;;5074375;28;19920;-74
2021/07/18 11:46:14;;;;;;;;;;;26.80;99.90;;;;;;5071252;28;20015;-71
2021/07/18 11:48:40;;;;;;;;;;;26.90;99.90;;;;;;5082343;28;20261;-71
2021/07/18 11:51:14;;;;;;;;;;;27.10;99.90;;;;;;5077952;28;19917;-72
2021/07/18 11:53:46;;;;;;;;;;;27.10;99.90;;;;;;5081884;28;19916;-71
2021/07/18 11:56:35;;;;;;;;;;;27.20;99.90;;;;;;5081764;28;19908;-72
2021/07/18 11:59:03;;;;;;;;;;;27.10;99.90;;;;;;5075380;28;19944;-71
2021/07/18 12:01:30;;;;;;;;;;;27.20;99.90;;;;;;5080874;28;19916;-73
2021/07/18 12:03:56;;;;;;;;;;;27.40;99.90;;;;;;5081719;28;19924;-75
2021/07/18 12:06:23;;;;;;;;;;;27.40;99.90;;;;;;5080506;28;19917;-73
2021/07/18 12:08:49;;;;;;;;;;;27.20;99.90;;;;;;5080299;28;19917;-73
2021/07/18 12:11:21;;;;;;;;;;;27.20;99.90;;;;;;5082163;28;19913;-73
2021/07/18 12:13:49;;;;;;;;;;;27.30;99.90;;;;;;5086717;28;19908;-72
2021/07/18 12:16:15;;;;;;;;;;;27.20;99.90;;;;;;5084048;28;19909;-73
2021/07/18 12:18:45;;;;;;;;;;;27.20;99.90;;;;;;5075738;28;19916;-74
2021/07/18 12:21:34;;;;;;;;;;;27.30;99.90;;;;;;5083451;28;19935;-73
2021/07/18 12:24:18;;;;;;;;;;;27.30;99.90;;;;;;5079193;28;19912;-75
2021/07/18 12:26:44;;;;;;;;;;;27.30;99.90;;;;;;5086013;28;19917;-73
2021/07/18 12:29:10;;;;;;;;;;;27.30;99.90;;;;;;5085259;28;19931;-75
2021/07/18 12:31:37;;;;;;;;;;;27.30;99.90;;;;;;5086906;28;19912;-72
2021/07/18 12:34:03;;;;;;;;;;;27.50;99.90;;;;;;5085329;28;19913;-74
2021/07/18 12:36:28;;;;;;;;;;;27.80;99.90;;;;;;5067525;28;19913;-73
2021/07/18 12:38:54;;;;;;;;;;;27.50;99.90;;;;;;5082407;28;19944;-74
2021/07/18 12:41:19;;;;;;;;;;;27.50;99.90;;;;;;5080111;28;20388;-73
2021/07/18 12:43:45;;;;;;;;;;;27.40;99.90;;;;;;5077369;28;19912;-75
2021/07/18 12:46:11;;;;;;;;;;;27.30;99.90;;;;;;5067982;28;19917;-72
2021/07/18 12:48:37;;;;;;;;;;;27.20;99.90;;;;;;5072585;28;19913;-72
2021/07/18 12:51:15;;;;;;;;;;;27.30;99.90;;;;;;5066550;28;19981;-73
2021/07/18 12:53:40;;;;;;;;;;;27.50;99.90;;;;;;5079761;28;20014;-73
2021/07/18 12:56:08;;;;;;;;;;;27.50;99.90;;;;;;5084311;28;19912;-72
2021/07/18 12:58:41;;;;;;;;;;;27.60;99.90;;;;;;5086339;28;20356;-74
2021/07/18 13:01:12;;;;;;;;;;;27.40;99.90;;;;;;5084169;28;19935;-73
2021/07/18 13:03:39;;;;;;;;;;;27.40;99.90;;;;;;5071688;28;20277;-74
2021/07/18 13:06:12;;;;;;;;;;;27.50;99.90;;;;;;5071397;28;19995;-72
2021/07/18 13:08:47;;;;;;;;;;;27.60;99.90;;;;;;5074810;28;19917;-74
2021/07/18 13:11:33;;;;;;;;;;;27.70;99.90;;;;;;5071052;28;20383;-73
2021/07/18 13:13:59;;;;;;;;;;;27.80;99.90;;;;;;5077465;28;20275;-71
2021/07/18 13:16:32;;;;;;;;;;;27.70;99.90;;;;;;5082600;28;19973;-73
2021/07/18 13:19:11;;;;;;;;;;;27.90;99.90;;;;;;5095808;28;19923;-75
2021/07/18 13:21:37;;;;;;;;;;;27.80;99.90;;;;;;5092209;28;19908;-76
2021/07/18 13:24:03;;;;;;;;;;;27.60;99.90;;;;;;5085242;28;19912;-76
2021/07/18 13:26:36;;;;;;;;;;;27.60;99.90;;;;;;5093006;28;19928;-76
2021/07/18 13:29:12;;;;;;;;;;;27.60;99.90;;;;;;5096877;28;19896;-76
2021/07/18 13:31:37;;;;;;;;;;;27.70;99.90;;;;;;5090036;28;19909;-75
2021/07/18 13:34:03;;;;;;;;;;;27.70;99.90;;;;;;5078484;28;19963;-75
2021/07/18 13:36:29;;;;;;;;;;;27.80;99.90;;;;;;5092847;28;19917;-74
2021/07/18 13:38:54;;;;;;;;;;;27.80;99.90;;;;;;5097225;28;19924;-75
2021/07/18 13:41:22;;;;;;;;;;;27.50;99.90;;;;;;5097995;28;19913;-75
2021/07/18 13:43:48;;;;;;;;;;;27.60;99.90;;;;;;5097966;28;19992;-76
2021/07/18 13:46:13;;;;;;;;;;;27.70;99.90;;;;;;5086545;28;19951;-76
2021/07/18 13:48:39;;;;;;;;;;;27.60;99.90;;;;;;5094583;28;19919;-77
2021/07/18 13:51:06;;;;;;;;;;;27.60;99.90;;;;;;5083024;28;19917;-76
2021/07/18 13:53:32;;;;;;;;;;;27.70;99.90;;;;;;5088954;28;19916;-75
2021/07/18 13:55:58;;;;;;;;;;;27.70;99.90;;;;;;5076850;28;19932;-76
2021/07/18 13:58:27;;;;;;;;;;;27.60;99.90;;;;;;5095732;28;19897;-76
2021/07/18 14:00:53;;;;;;;;;;;27.40;99.90;;;;;;5098107;28;19934;-76
2021/07/18 14:03:19;;;;;;;;;;;27.30;99.90;;;;;;5097648;28;19924;-74
2021/07/18 14:05:44;;;;;;;;;;;27.30;99.90;;;;;;5090735;28;19909;-76
2021/07/18 14:08:10;;;;;;;;;;;27.30;99.90;;;;;;5077084;28;19955;-74
2021/07/18 14:10:36;;;;;;;;;;;27.30;99.90;;;;;;5087307;28;19916;-77
2021/07/18 14:13:01;;;;;;;;;;;27.30;99.90;;;;;;5097847;28;19896;-75
2021/07/18 14:15:27;;;;;;;;;;;27.30;99.90;;;;;;5096733;28;19950;-73
2021/07/18 14:17:53;;;;;;;;;;;27.40;99.90;;;;;;5082407;28;19913;-74